Time;durP1;ratioP1;P1;durP2;ratioP2;P2;SDS_P1;SDS_P2;PMS_P1;PMS_P2;Temp;Humidity;BMP_temperature;BMP_pressure;BME280_temperature;BME280_humidity;BME280_pressure;Samples;Min_cycle;Max_cycle;Signal;HPM_P1;HPM_P2
2021/12/22 00:01:35;;;;;;;12.57;7.17;;;1.60;99.90;;;;;;5096231;28;20264;-69
2021/12/22 00:04:02;;;;;;;13.83;7.07;;;1.60;99.90;;;;;;5114637;28;20628;-69
2021/12/22 00:06:29;;;;;;;15.53;7.33;;;1.70;99.90;;;;;;5096084;28;20205;-69
2021/12/22 00:08:55;;;;;;;14.57;7.50;;;1.60;99.90;;;;;;5114479;28;20604;-68
2021/12/22 00:11:21;;;;;;;12.70;7.27;;;1.70;99.90;;;;;;5095798;28;20289;-69
2021/12/22 00:13:46;;;;;;;12.07;7.17;;;1.60;99.90;;;;;;5096064;28;20177;-69
2021/12/22 00:16:12;;;;;;;13.20;7.00;;;1.70;99.90;;;;;;5095811;28;20207;-70
2021/12/22 00:18:37;;;;;;;16.83;7.83;;;1.80;99.90;;;;;;5095789;28;20186;-68
2021/12/22 00:21:04;;;;;;;11.13;6.87;;;1.70;99.90;;;;;;5114252;28;20158;-68
2021/12/22 00:23:29;;;;;;;11.60;6.87;;;1.70;99.90;;;;;;5095717;28;20626;-68
2021/12/22 00:25:56;;;;;;;15.40;7.63;;;1.70;99.90;;;;;;5113948;28;20287;-68
2021/12/22 00:28:21;;;;;;;12.80;6.57;;;1.70;99.90;;;;;;5095346;28;20174;-69
2021/12/22 00:30:49;;;;;;;11.40;6.33;;;1.70;99.90;;;;;;5114257;28;20497;-69
2021/12/22 00:33:15;;;;;;;12.40;6.97;;;1.70;99.90;;;;;;5095578;28;20659;-68
2021/12/22 00:35:44;;;;;;;10.47;5.87;;;1.70;99.90;;;;;;5095641;28;20208;-68
2021/12/22 00:38:11;;;;;;;11.83;6.40;;;1.70;99.90;;;;;;5095106;28;20190;-68
2021/12/22 00:40:38;;;;;;;13.00;6.10;;;1.70;99.90;;;;;;5095456;28;20179;-68
2021/12/22 00:43:04;;;;;;;10.43;5.63;;;1.70;99.90;;;;;;5095401;28;20197;-68
2021/12/22 00:45:33;;;;;;;14.67;6.63;;;1.60;99.90;;;;;;5095443;28;20223;-70
2021/12/22 00:47:58;;;;;;;12.10;6.23;;;1.60;99.90;;;;;;5113286;28;20679;-69
2021/12/22 00:50:24;;;;;;;11.93;6.20;;;1.70;99.90;;;;;;5112706;28;20169;-68
2021/12/22 00:52:50;;;;;;;11.50;5.90;;;1.60;99.90;;;;;;5114069;28;20189;-68
2021/12/22 00:55:19;;;;;;;11.13;6.20;;;1.70;99.90;;;;;;5095163;28;20166;-69
2021/12/22 00:57:46;;;;;;;12.37;6.30;;;1.70;99.90;;;;;;5113419;28;20177;-68
2021/12/22 01:00:12;;;;;;;14.13;6.50;;;1.70;99.90;;;;;;5095291;28;20170;-68
2021/12/22 01:02:39;;;;;;;12.97;7.00;;;1.60;99.90;;;;;;5113374;28;20161;-68
2021/12/22 01:05:05;;;;;;;12.97;6.17;;;1.70;99.90;;;;;;5113500;28;20625;-69
2021/12/22 01:07:31;;;;;;;14.67;6.97;;;1.60;99.90;;;;;;5113121;28;20554;-68
2021/12/22 01:09:56;;;;;;;15.77;6.87;;;1.60;99.90;;;;;;5094547;28;20182;-68
2021/12/22 01:12:22;;;;;;;12.57;6.07;;;1.60;99.90;;;;;;5094788;28;20178;-68
2021/12/22 01:14:47;;;;;;;15.47;6.83;;;1.70;99.90;;;;;;5095097;28;20560;-68
2021/12/22 01:17:15;;;;;;;15.30;7.40;;;1.70;99.90;;;;;;5112844;28;20205;-69
2021/12/22 01:24:49;;;;;;;13.60;7.23;;;1.70;99.90;;;;;;5113439;28;20173;-68
2021/12/22 01:27:21;;;;;;;11.53;7.13;;;1.80;99.90;;;;;;5094486;28;20190;-69
2021/12/22 01:29:47;;;;;;;15.80;8.33;;;1.90;99.90;;;;;;5094511;28;20166;-68
2021/12/22 01:32:14;;;;;;;14.37;7.97;;;1.80;99.90;;;;;;5094585;28;20170;-69
2021/12/22 01:34:39;;;;;;;11.97;7.33;;;1.70;99.90;;;;;;5094418;28;20261;-68
2021/12/22 01:37:05;;;;;;;17.37;8.30;;;1.70;99.90;;;;;;5112497;28;20283;-68
2021/12/22 01:39:30;;;;;;;14.57;7.60;;;1.70;99.90;;;;;;5094219;28;20173;-69
2021/12/22 01:41:56;;;;;;;16.90;8.20;;;1.80;99.90;;;;;;5094098;28;20166;-68
2021/12/22 01:44:31;;;;;;;15.50;8.33;;;1.80;99.90;;;;;;5112673;28;20517;-69
2021/12/22 01:49:50;;;;;;;15.90;8.50;;;1.80;99.90;;;;;;5112540;28;20679;-69
2021/12/22 01:52:18;;;;;;;19.23;8.17;;;1.80;99.90;;;;;;5094030;28;20209;-69
2021/12/22 01:54:49;;;;;;;13.87;7.83;;;1.80;99.90;;;;;;5094287;28;20712;-69
2021/12/22 01:57:16;;;;;;;16.63;8.80;;;1.90;99.90;;;;;;5093890;28;20212;-70
2021/12/22 01:59:44;;;;;;;14.43;7.33;;;1.90;99.90;;;;;;5090862;28;20184;-68
2021/12/22 02:02:13;;;;;;;13.50;7.70;;;1.80;99.90;;;;;;5090436;28;20177;-69
2021/12/22 02:04:39;;;;;;;12.27;7.33;;;1.80;99.90;;;;;;5092494;28;20167;-69
2021/12/22 02:07:06;;;;;;;13.77;7.37;;;1.80;99.90;;;;;;5094873;28;20247;-70
2021/12/22 02:12:01;;;;;;;11.87;6.63;;;1.80;99.90;;;;;;5116810;28;20175;-71
2021/12/22 02:14:27;;;;;;;9.67;6.23;;;1.80;99.90;;;;;;5098724;28;20172;-71
2021/12/22 02:16:52;;;;;;;14.77;7.47;;;1.70;99.90;;;;;;5098938;28;20217;-71
2021/12/22 02:19:18;;;;;;;10.50;6.17;;;1.80;99.90;;;;;;5098224;28;20544;-71
2021/12/22 02:21:50;;;;;;;13.73;7.37;;;1.90;99.90;;;;;;5097948;28;20178;-70
2021/12/22 02:24:16;;;;;;;15.93;8.33;;;1.80;99.90;;;;;;5097155;28;20256;-68
2021/12/22 02:26:49;;;;;;;15.83;8.30;;;1.80;99.90;;;;;;5093335;28;20239;-69
2021/12/22 02:29:33;;;;;;;14.30;7.60;;;1.80;99.90;;;;;;5112072;28;20660;-70
2021/12/22 02:32:07;;;;;;;14.77;8.37;;;1.80;99.90;;;;;;5111938;28;20660;-69
2021/12/22 02:34:45;;;;;;;13.80;7.83;;;1.90;99.90;;;;;;5094110;28;20173;-69
2021/12/22 02:37:16;;;;;;;14.13;7.67;;;1.90;99.90;;;;;;5093632;28;20234;-69
2021/12/22 02:39:56;;;;;;;13.13;7.53;;;1.90;99.90;;;;;;5112288;28;20521;-69
2021/12/22 02:42:24;;;;;;;12.03;7.93;;;1.90;99.90;;;;;;5118192;28;20173;-71
2021/12/22 02:44:50;;;;;;;12.33;7.60;;;1.90;99.90;;;;;;5098423;28;20669;-71
2021/12/22 02:47:22;;;;;;;14.50;7.83;;;1.80;99.90;;;;;;5094419;28;20201;-68
2021/12/22 02:49:48;;;;;;;11.13;7.53;;;1.80;99.90;;;;;;5092073;28;20177;-70
2021/12/22 02:52:14;;;;;;;16.13;7.90;;;1.90;99.90;;;;;;5094875;28;20659;-71
2021/12/22 02:54:50;;;;;;;13.93;7.90;;;1.80;99.90;;;;;;5093791;28;20197;-68
2021/12/22 02:57:25;;;;;;;14.07;7.60;;;1.80;99.90;;;;;;5096613;28;20284;-71
2021/12/22 03:00:30;;;;;;;17.30;7.53;;;1.70;99.90;;;;;;5098205;28;20252;-71
2021/12/22 03:02:47;;;;;;;14.00;7.90;;;1.70;99.90;;;;;;5116334;28;20668;-71
2021/12/22 03:05:12;;;;;;;12.73;7.00;;;1.60;99.90;;;;;;5117374;28;20172;-71
2021/12/22 03:07:38;;;;;;;11.10;7.00;;;1.70;99.90;;;;;;5098327;28;20189;-70
2021/12/22 03:10:12;;;;;;;14.60;7.13;;;1.70;99.90;;;;;;5112584;28;20184;-69
2021/12/22 03:12:39;;;;;;;9.93;5.93;;;1.70;99.90;;;;;;5112900;28;20518;-70
2021/12/22 03:15:07;;;;;;;11.57;6.03;;;1.70;99.90;;;;;;5097391;28;20180;-69
2021/12/22 03:17:33;;;;;;;15.13;6.33;;;1.70;99.90;;;;;;5114896;28;20689;-69
2021/12/22 03:19:59;;;;;;;10.20;5.80;;;1.70;99.90;;;;;;5102202;28;20195;-72
2021/12/22 03:22:24;;;;;;;10.60;5.73;;;1.70;99.90;;;;;;5115531;28;20169;-69
2021/12/22 03:24:51;;;;;;;9.93;5.57;;;1.60;99.90;;;;;;5098552;28;20659;-71
2021/12/22 03:27:18;;;;;;;14.33;6.70;;;1.60;99.90;;;;;;5120703;28;20557;-71
2021/12/22 03:29:45;;;;;;;8.60;5.53;;;1.60;99.90;;;;;;5103477;28;20218;-72
2021/12/22 03:32:10;;;;;;;9.87;6.20;;;1.70;99.90;;;;;;5122903;28;20180;-71
2021/12/22 03:34:38;;;;;;;12.23;5.50;;;1.70;99.90;;;;;;5104332;28;20265;-71
2021/12/22 03:37:04;;;;;;;8.97;4.50;;;1.70;99.90;;;;;;5102214;28;20208;-69
2021/12/22 03:39:30;;;;;;;8.30;5.47;;;1.70;99.90;;;;;;5096714;28;20181;-69
2021/12/22 03:41:56;;;;;;;10.07;5.80;;;1.60;99.90;;;;;;5115183;28;20637;-69
2021/12/22 03:44:21;;;;;;;7.17;4.07;;;1.70;99.90;;;;;;5101603;28;20173;-71
2021/12/22 03:46:47;;;;;;;7.20;4.40;;;1.80;99.90;;;;;;5101671;28;20536;-71
2021/12/22 03:49:14;;;;;;;9.67;3.90;;;1.80;99.90;;;;;;5102031;28;20206;-71
2021/12/22 03:51:40;;;;;;;8.00;4.70;;;1.70;99.90;;;;;;5084615;28;20690;-71
2021/12/22 03:54:09;;;;;;;6.60;3.73;;;1.70;99.90;;;;;;5101721;28;20170;-72
2021/12/22 03:56:36;;;;;;;8.77;4.07;;;1.70;99.90;;;;;;5084240;28;20593;-70
2021/12/22 03:59:02;;;;;;;7.30;4.07;;;1.70;99.90;;;;;;5101688;28;20170;-71
2021/12/22 04:01:27;;;;;;;8.47;4.43;;;1.70;99.90;;;;;;5120134;28;20181;-70
2021/12/22 04:03:57;;;;;;;5.43;3.13;;;1.80;99.90;;;;;;5102074;28;20171;-71
2021/12/22 04:06:23;;;;;;;6.07;3.20;;;1.70;99.90;;;;;;5101813;28;20570;-70
2021/12/22 04:08:48;;;;;;;7.60;3.33;;;1.60;99.90;;;;;;5101553;28;20170;-70
2021/12/22 04:11:14;;;;;;;7.20;3.60;;;1.50;99.90;;;;;;5101929;28;20178;-71
2021/12/22 04:13:40;;;;;;;8.00;3.77;;;1.60;99.90;;;;;;5101640;28;20204;-71
2021/12/22 04:16:05;;;;;;;8.07;3.17;;;1.60;99.90;;;;;;5119027;28;20402;-71
2021/12/22 04:18:31;;;;;;;5.77;3.00;;;1.50;99.90;;;;;;5094546;22;20229;-70
2021/12/22 04:20:56;;;;;;;6.40;2.90;;;1.60;99.90;;;;;;5093984;28;20703;-70
2021/12/22 04:23:22;;;;;;;4.93;3.23;;;1.60;99.90;;;;;;5075652;28;20155;-70
2021/12/22 04:25:48;;;;;;;8.37;3.60;;;1.60;99.90;;;;;;5075873;28;20176;-70
2021/12/22 04:28:13;;;;;;;9.23;3.17;;;1.70;99.90;;;;;;5075185;28;20564;-69
2021/12/22 04:30:45;;;;;;;5.57;3.13;;;1.70;99.90;;;;;;5093800;28;20171;-70
2021/12/22 04:33:10;;;;;;;5.97;2.70;;;1.70;99.90;;;;;;5093555;28;20166;-69
2021/12/22 04:35:36;;;;;;;6.53;3.40;;;1.70;99.90;;;;;;5075322;28;20174;-70
2021/12/22 04:38:03;;;;;;;5.47;2.93;;;1.70;99.90;;;;;;5075077;28;20573;-70
2021/12/22 04:40:29;;;;;;;4.10;2.90;;;1.70;99.90;;;;;;5075434;28;20170;-70
2021/12/22 04:42:54;;;;;;;6.37;3.13;;;1.70;99.90;;;;;;5075191;28;20170;-70
2021/12/22 04:45:20;;;;;;;5.60;3.20;;;1.80;99.90;;;;;;5075470;28;20519;-70
2021/12/22 04:47:47;;;;;;;5.33;3.20;;;1.80;99.90;;;;;;5074734;28;20207;-70
2021/12/22 04:50:17;;;;;;;7.20;3.20;;;1.70;99.90;;;;;;5093494;28;20243;-70
2021/12/22 04:52:58;;;;;;;10.83;3.87;;;1.50;99.90;;;;;;5075148;28;20205;-69
2021/12/22 04:55:27;;;;;;;6.63;3.53;;;1.60;99.90;;;;;;5075486;28;20570;-70
2021/12/22 04:57:54;;;;;;;6.63;4.17;;;1.60;99.90;;;;;;5075248;28;20206;-70
2021/12/22 05:00:21;;;;;;;6.73;3.70;;;1.70;99.90;;;;;;5077790;28;20163;-71
2021/12/22 05:02:47;;;;;;;8.00;3.73;;;1.70;99.90;;;;;;5096501;28;20200;-69
2021/12/22 05:05:13;;;;;;;8.93;4.83;;;1.70;99.90;;;;;;5075194;28;20623;-69
2021/12/22 05:07:39;;;;;;;8.93;4.80;;;1.70;99.90;;;;;;5074375;28;20247;-70
2021/12/22 05:10:06;;;;;;;5.23;4.03;;;1.70;99.90;;;;;;5093589;28;20539;-71
2021/12/22 05:12:31;;;;;;;6.97;4.53;;;1.60;99.90;;;;;;5076671;28;20165;-70
2021/12/22 05:14:57;;;;;;;9.30;4.90;;;1.60;99.90;;;;;;5092980;28;20265;-70
2021/12/22 05:17:50;;;;;;;8.00;5.17;;;1.60;99.90;;;;;;5074193;28;20210;-71
2021/12/22 05:20:13;;;;;;;8.13;4.97;;;1.50;99.90;;;;;;5092369;28;20649;-71
2021/12/22 05:22:39;;;;;;;8.77;5.77;;;1.60;99.90;;;;;;5092692;28;20631;-70
2021/12/22 05:25:07;;;;;;;12.20;5.83;;;1.60;99.90;;;;;;5074795;28;20525;-70
2021/12/22 05:27:33;;;;;;;9.57;5.50;;;1.60;99.90;;;;;;5073971;28;20200;-70
2021/12/22 05:29:59;;;;;;;13.43;6.33;;;1.70;99.90;;;;;;5092743;28;20178;-70
2021/12/22 05:32:30;;;;;;;11.17;6.27;;;1.60;99.90;;;;;;5074471;28;20177;-70
2021/12/22 05:35:00;;;;;;;10.37;6.30;;;1.50;99.90;;;;;;5092852;28;20165;-70
2021/12/22 05:37:26;;;;;;;10.63;6.40;;;1.50;99.90;;;;;;5074433;28;20674;-71
2021/12/22 05:39:52;;;;;;;11.00;6.27;;;1.60;99.90;;;;;;5092425;28;20471;-70
2021/12/22 05:42:19;;;;;;;13.30;6.77;;;1.60;99.90;;;;;;5092446;28;20166;-70
2021/12/22 05:44:44;;;;;;;11.97;6.77;;;1.50;99.90;;;;;;5074105;28;20174;-72
2021/12/22 05:47:10;;;;;;;10.60;6.57;;;1.40;99.90;;;;;;5073945;28;20523;-70
2021/12/22 05:49:36;;;;;;;12.20;7.60;;;1.40;99.90;;;;;;5092139;28;20607;-70
2021/12/22 05:52:02;;;;;;;12.37;6.20;;;1.30;99.90;;;;;;5091993;28;20660;-70
2021/12/22 05:54:28;;;;;;;11.67;6.97;;;1.20;99.90;;;;;;5092125;28;20172;-70
2021/12/22 05:56:53;;;;;;;12.17;7.10;;;1.20;99.90;;;;;;5073429;28;20596;-71
2021/12/22 05:59:19;;;;;;;13.10;7.10;;;1.10;99.90;;;;;;5091889;28;20174;-70
2021/12/22 06:01:44;;;;;;;13.10;7.40;;;1.00;99.90;;;;;;5073795;28;20257;-70
2021/12/22 06:04:10;;;;;;;13.57;7.83;;;1.00;99.90;;;;;;5092042;28;20221;-70
2021/12/22 06:06:35;;;;;;;14.27;7.83;;;0.90;99.90;;;;;;5073605;28;20190;-70
2021/12/22 06:09:01;;;;;;;12.93;7.23;;;0.90;99.90;;;;;;5073371;28;20177;-70
2021/12/22 06:11:26;;;;;;;14.13;8.10;;;0.80;99.90;;;;;;5073599;28;20618;-70
2021/12/22 06:13:52;;;;;;;16.23;7.50;;;0.80;99.90;;;;;;5073479;28;20184;-70
2021/12/22 06:16:18;;;;;;;16.63;7.60;;;0.80;99.90;;;;;;5073581;28;20250;-70
2021/12/22 06:18:45;;;;;;;12.57;7.33;;;0.80;99.90;;;;;;5073098;28;20595;-71
2021/12/22 06:21:12;;;;;;;17.30;8.10;;;0.80;99.90;;;;;;5073654;28;20629;-69
2021/12/22 06:23:38;;;;;;;13.10;7.43;;;0.70;99.90;;;;;;5073351;28;20235;-71
2021/12/22 06:26:04;;;;;;;15.40;8.33;;;0.80;99.90;;;;;;5073565;28;20177;-70
2021/12/22 06:28:30;;;;;;;14.97;7.73;;;0.80;99.90;;;;;;5073009;28;20190;-70
2021/12/22 06:30:55;;;;;;;17.23;8.63;;;0.80;99.90;;;;;;5091631;28;20182;-72
2021/12/22 06:33:21;;;;;;;15.67;7.63;;;0.70;99.90;;;;;;5091681;28;20381;-70
2021/12/22 06:35:48;;;;;;;13.77;7.80;;;0.70;99.90;;;;;;5091595;28;20197;-71
2021/12/22 06:38:14;;;;;;;16.93;7.47;;;0.70;99.90;;;;;;5072930;28;20217;-70
2021/12/22 06:40:40;;;;;;;15.63;7.73;;;0.70;99.90;;;;;;5092318;28;20550;-70
2021/12/22 06:43:06;;;;;;;15.97;8.20;;;0.60;99.90;;;;;;5091340;28;20228;-70
2021/12/22 06:45:31;;;;;;;15.37;7.77;;;0.60;99.90;;;;;;5073347;28;20181;-70
2021/12/22 06:47:57;;;;;;;14.10;8.10;;;0.70;99.90;;;;;;5092753;28;20200;-70
2021/12/22 06:50:23;;;;;;;16.77;9.40;;;0.60;99.90;;;;;;5077592;28;20174;-69
2021/12/22 06:52:48;;;;;;;18.47;9.20;;;0.60;99.90;;;;;;5077019;28;20270;-70
2021/12/22 06:55:14;;;;;;;16.27;8.73;;;0.60;99.90;;;;;;5077522;28;20185;-70
2021/12/22 06:57:40;;;;;;;14.60;8.80;;;0.60;99.90;;;;;;5095177;28;20322;-71
2021/12/22 07:00:09;;;;;;;16.40;8.47;;;0.70;99.90;;;;;;5077371;28;20268;-71
2021/12/22 07:02:37;;;;;;;14.20;8.53;;;0.70;99.90;;;;;;5077223;28;20177;-71
2021/12/22 07:05:05;;;;;;;22.20;9.23;;;0.70;99.90;;;;;;5077431;28;20654;-70
2021/12/22 07:07:30;;;;;;;14.27;8.57;;;0.70;99.90;;;;;;5095217;28;20202;-70
2021/12/22 07:09:56;;;;;;;13.80;8.33;;;0.70;99.90;;;;;;5079159;28;20182;-70
2021/12/22 07:12:21;;;;;;;16.83;8.47;;;0.70;99.90;;;;;;5077180;28;20574;-71
2021/12/22 07:14:47;;;;;;;16.13;8.93;;;0.70;99.90;;;;;;5078393;28;20573;-71
2021/12/22 07:17:13;;;;;;;15.80;7.90;;;0.60;99.90;;;;;;5076642;28;20239;-71
2021/12/22 07:19:39;;;;;;;16.67;9.13;;;0.60;99.90;;;;;;5077132;28;20180;-72
2021/12/22 07:22:05;;;;;;;18.67;9.50;;;0.60;99.90;;;;;;5077000;28;20212;-70
2021/12/22 07:24:31;;;;;;;16.13;8.77;;;0.70;99.90;;;;;;5077042;28;20162;-73
2021/12/22 07:26:57;;;;;;;14.60;8.50;;;0.70;99.90;;;;;;5094982;28;20196;-71
2021/12/22 07:29:23;;;;;;;15.67;8.30;;;0.70;99.90;;;;;;5076756;28;20211;-70
2021/12/22 07:31:48;;;;;;;19.10;9.37;;;0.70;99.90;;;;;;5076832;28;20212;-70
2021/12/22 07:34:23;;;;;;;17.27;9.40;;;0.80;99.90;;;;;;5076839;28;20273;-71
2021/12/22 07:37:03;;;;;;;14.70;8.90;;;0.80;99.90;;;;;;5076613;28;20208;-70
2021/12/22 07:39:29;;;;;;;18.10;9.77;;;0.80;99.90;;;;;;5076480;28;20206;-70
2021/12/22 07:41:54;;;;;;;18.83;9.87;;;0.80;99.90;;;;;;5076781;28;20201;-71
2021/12/22 07:44:20;;;;;;;17.83;8.37;;;0.80;99.90;;;;;;5076956;28;20166;-71
2021/12/22 07:46:45;;;;;;;33.47;11.50;;;0.80;99.90;;;;;;5094600;28;20211;-71
2021/12/22 07:49:11;;;;;;;18.07;9.50;;;0.90;99.90;;;;;;5076190;28;20186;-73
2021/12/22 07:51:37;;;;;;;21.90;8.97;;;0.80;99.90;;;;;;5078448;28;20196;-70
2021/12/22 07:54:03;;;;;;;18.70;9.37;;;0.90;99.90;;;;;;5076775;28;20205;-71
2021/12/22 07:56:29;;;;;;;15.63;8.83;;;0.90;99.90;;;;;;5076842;28;20560;-70
2021/12/22 07:58:55;;;;;;;19.50;10.53;;;0.90;99.90;;;;;;5076094;28;20221;-70
2021/12/22 08:01:21;;;;;;;20.00;9.67;;;1.00;99.90;;;;;;5076678;28;20423;-71
2021/12/22 08:03:47;;;;;;;20.00;9.60;;;1.00;99.90;;;;;;5076222;28;20189;-71
2021/12/22 08:06:13;;;;;;;19.50;10.13;;;1.10;99.90;;;;;;5076619;28;20637;-71
2021/12/22 08:08:39;;;;;;;21.03;9.53;;;1.20;99.90;;;;;;5093005;28;20205;-70
2021/12/22 08:11:04;;;;;;;14.00;9.23;;;1.30;99.90;;;;;;5076689;28;20625;-71
2021/12/22 08:13:30;;;;;;;18.73;9.63;;;1.30;99.90;;;;;;5076464;28;20186;-70
2021/12/22 08:15:56;;;;;;;16.23;10.13;;;1.20;99.90;;;;;;5076761;28;20194;-70
2021/12/22 08:18:21;;;;;;;21.57;10.33;;;1.40;99.90;;;;;;5101436;28;20670;-71
2021/12/22 08:20:47;;;;;;;16.33;9.80;;;1.50;99.90;;;;;;5086183;28;20202;-72
2021/12/22 08:23:13;;;;;;;17.40;9.70;;;1.60;99.90;;;;;;5078409;28;20612;-70
2021/12/22 08:25:39;;;;;;;20.27;10.53;;;1.70;99.90;;;;;;5076035;28;20174;-70
2021/12/22 08:28:05;;;;;;;21.33;10.67;;;1.90;99.90;;;;;;5093733;28;20182;-71
2021/12/22 08:30:30;;;;;;;21.87;10.23;;;1.90;99.90;;;;;;5093762;28;20170;-71
2021/12/22 08:32:58;;;;;;;18.20;10.00;;;2.00;99.90;;;;;;5076002;28;20182;-72
2021/12/22 08:35:26;;;;;;;20.90;10.73;;;2.00;99.90;;;;;;5094249;28;20619;-71
2021/12/22 08:40:36;;;;;;;16.53;9.50;;;2.30;99.90;;;;;;5094513;28;20185;-72
2021/12/22 08:43:02;;;;;;;20.37;9.90;;;2.50;99.90;;;;;;5075660;28;20176;-71
2021/12/22 08:45:28;;;;;;;18.87;9.47;;;2.80;99.90;;;;;;5075532;28;20648;-71
2021/12/22 08:47:53;;;;;;;17.20;9.37;;;3.10;99.90;;;;;;5093822;28;20686;-70
2021/12/22 08:50:19;;;;;;;26.57;10.57;;;3.20;99.90;;;;;;5075841;28;20277;-71
2021/12/22 08:52:45;;;;;;;20.13;10.43;;;3.40;99.90;;;;;;5075418;28;20338;-72
2021/12/22 08:55:12;;;;;;;19.87;9.53;;;3.40;99.90;;;;;;5075396;28;20175;-71
2021/12/22 08:57:38;;;;;;;21.17;10.67;;;3.60;99.90;;;;;;5074791;28;20293;-73
2021/12/22 09:00:06;;;;;;;16.57;9.53;;;3.60;99.90;;;;;;5075274;28;20174;-70
2021/12/22 09:02:32;;;;;;;18.77;10.53;;;3.70;99.90;;;;;;5075154;28;20235;-70
2021/12/22 09:04:57;;;;;;;18.87;9.60;;;3.60;99.90;;;;;;5092898;28;20172;-69
2021/12/22 09:07:23;;;;;;;16.90;9.73;;;3.50;99.90;;;;;;5074950;28;20194;-70
2021/12/22 09:09:48;;;;;;;21.37;9.77;;;3.40;99.90;;;;;;5092308;28;20185;-70
2021/12/22 09:12:14;;;;;;;21.47;10.90;;;3.30;99.90;;;;;;5075084;28;20260;-70
2021/12/22 09:14:40;;;;;;;18.87;10.93;;;3.20;99.90;;;;;;5093367;28;20163;-71
2021/12/22 09:17:06;;;;;;;19.90;11.57;;;2.90;99.90;;;;;;5092821;28;20208;-70
2021/12/22 09:19:31;;;;;;;24.60;11.63;;;3.00;99.90;;;;;;5074802;28;20176;-70
2021/12/22 09:21:57;;;;;;;20.63;11.27;;;2.80;99.90;;;;;;5074902;28;20551;-71
2021/12/22 09:24:22;;;;;;;19.67;11.30;;;2.90;99.90;;;;;;5093197;28;20166;-70
2021/12/22 09:26:48;;;;;;;19.47;12.30;;;2.90;99.90;;;;;;5092669;28;20201;-70
2021/12/22 09:29:14;;;;;;;24.47;11.40;;;2.90;99.90;;;;;;5074378;28;20180;-71
2021/12/22 09:31:39;;;;;;;22.83;11.20;;;2.90;99.90;;;;;;5074982;28;20273;-70
2021/12/22 09:34:08;;;;;;;23.83;11.37;;;2.90;99.90;;;;;;5074397;28;20181;-70
2021/12/22 09:36:33;;;;;;;26.20;12.43;;;2.90;99.90;;;;;;5074728;28;20628;-70
2021/12/22 09:38:59;;;;;;;24.83;13.47;;;2.90;99.90;;;;;;5074149;28;20308;-70
2021/12/22 09:41:24;;;;;;;20.87;13.03;;;2.90;99.90;;;;;;5092910;28;20314;-71
2021/12/22 09:43:55;;;;;;;20.77;12.43;;;2.90;99.90;;;;;;5074828;28;20187;-70
2021/12/22 09:46:23;;;;;;;24.50;13.07;;;2.90;99.90;;;;;;5074551;28;20178;-72
2021/12/22 09:48:52;;;;;;;23.03;12.83;;;2.90;99.90;;;;;;5091008;28;20206;-71
2021/12/22 09:53:53;;;;;;;22.83;13.10;;;3.00;99.90;;;;;;5092579;28;20166;-70
2021/12/22 09:56:21;;;;;;;24.50;13.50;;;3.00;99.90;;;;;;5092724;28;20196;-70
2021/12/22 09:58:48;;;;;;;23.50;13.23;;;3.20;99.90;;;;;;5092183;28;20196;-71
2021/12/22 10:01:21;;;;;;;20.33;12.37;;;3.20;99.90;;;;;;5092012;28;20208;-70
2021/12/22 10:03:46;;;;;;;25.93;14.33;;;3.30;99.90;;;;;;5091127;28;20549;-71
2021/12/22 10:06:12;;;;;;;20.07;12.93;;;3.30;99.90;;;;;;5074378;28;20175;-69
2021/12/22 10:08:53;;;;;;;21.87;13.33;;;3.40;99.90;;;;;;5091972;28;20583;-69
2021/12/22 10:11:19;;;;;;;21.37;13.17;;;3.50;99.90;;;;;;5091125;28;20177;-69
2021/12/22 10:13:45;;;;;;;21.97;12.83;;;3.60;99.90;;;;;;5090738;28;20198;-70
2021/12/22 10:16:15;;;;;;;26.47;14.10;;;3.70;99.90;;;;;;5074253;28;20209;-69
2021/12/22 10:18:41;;;;;;;23.83;14.10;;;3.80;99.90;;;;;;5094620;22;20233;-76
2021/12/22 10:21:13;;;;;;;25.47;13.27;;;4.00;99.90;;;;;;5073702;28;20627;-73
2021/12/22 10:23:48;;;;;;;24.80;13.77;;;4.10;99.90;;;;;;5091485;28;20179;-75
2021/12/22 10:26:17;;;;;;;22.83;13.50;;;4.10;99.90;;;;;;5073794;28;20177;-75
2021/12/22 10:28:51;;;;;;;26.17;13.47;;;4.00;99.90;;;;;;5091187;28;20675;-76
2021/12/22 10:31:19;;;;;;;24.57;14.53;;;4.00;99.90;;;;;;5092031;28;20285;-75
2021/12/22 10:33:46;;;;;;;26.17;14.57;;;4.10;99.90;;;;;;5073378;28;20196;-76
2021/12/22 10:36:17;;;;;;;24.77;13.83;;;4.00;99.90;;;;;;5091450;28;20202;-76
2021/12/22 10:38:52;;;;;;;26.63;14.87;;;3.90;99.90;;;;;;5072868;28;20192;-76
2021/12/22 10:41:19;;;;;;;26.93;13.97;;;3.80;99.90;;;;;;5073555;28;20573;-75
2021/12/22 10:43:48;;;;;;;21.80;12.83;;;3.70;99.90;;;;;;5073572;28;20218;-75
2021/12/22 10:46:33;;;;;;;23.80;13.60;;;3.80;99.90;;;;;;5091533;28;20203;-76
2021/12/22 10:49:14;;;;;;;24.27;13.27;;;3.70;99.90;;;;;;5073013;28;20200;-76
2021/12/22 10:51:43;;;;;;;24.57;13.73;;;3.80;99.90;;;;;;5091756;28;20168;-75
2021/12/22 10:54:17;;;;;;;23.17;13.50;;;3.70;99.90;;;;;;5073275;28;20208;-76
2021/12/22 10:56:47;;;;;;;20.50;13.10;;;3.60;99.90;;;;;;5073210;28;20196;-75
2021/12/22 10:59:17;;;;;;;25.10;13.20;;;3.70;99.90;;;;;;5072246;28;20615;-76
2021/12/22 11:01:57;;;;;;;20.07;12.63;;;3.80;99.90;;;;;;5073003;28;20174;-76
2021/12/22 11:04:27;;;;;;;21.60;12.60;;;3.70;99.90;;;;;;5091325;28;20167;-76
2021/12/22 11:06:55;;;;;;;23.27;12.80;;;3.80;99.90;;;;;;5073132;28;20195;-75
2021/12/22 11:09:22;;;;;;;33.73;13.67;;;3.70;99.90;;;;;;5072269;28;20202;-76
2021/12/22 11:11:51;;;;;;;24.63;12.63;;;3.80;99.90;;;;;;5091531;28;20529;-76
2021/12/22 11:14:25;;;;;;;21.20;13.13;;;3.90;99.90;;;;;;5092223;28;20173;-74
2021/12/22 11:17:07;;;;;;;22.97;13.27;;;4.00;99.90;;;;;;5073988;28;20207;-75
2021/12/22 11:19:46;;;;;;;23.73;13.67;;;4.10;99.90;;;;;;5091940;28;20179;-75
2021/12/22 11:22:14;;;;;;;23.23;13.23;;;4.10;99.90;;;;;;5091906;28;20223;-75
2021/12/22 11:24:46;;;;;;;24.97;14.00;;;4.20;99.90;;;;;;5091844;28;20676;-76
2021/12/22 11:27:14;;;;;;;23.63;13.67;;;4.20;99.90;;;;;;5073816;28;20177;-75
2021/12/22 11:29:44;;;;;;;22.33;13.23;;;4.10;99.90;;;;;;5072298;28;20211;-75
2021/12/22 11:32:13;;;;;;;27.47;14.67;;;4.20;99.90;;;;;;5072783;28;20536;-76
2021/12/22 11:34:39;;;;;;;27.07;14.07;;;4.10;99.90;;;;;;5076053;28;20181;-75
2021/12/22 11:37:07;;;;;;;21.83;14.10;;;4.10;99.90;;;;;;5076390;28;20211;-75
2021/12/22 11:39:34;;;;;;;26.10;14.73;;;4.20;99.90;;;;;;5076361;28;20323;-75
2021/12/22 11:42:03;;;;;;;24.37;14.37;;;4.30;99.90;;;;;;5076771;28;20174;-75
2021/12/22 11:44:30;;;;;;;25.40;13.87;;;4.20;99.90;;;;;;5076566;28;20170;-75
2021/12/22 11:46:59;;;;;;;24.70;13.70;;;4.20;99.90;;;;;;5076784;28;20177;-76
2021/12/22 11:49:26;;;;;;;23.47;13.57;;;4.30;99.90;;;;;;5075955;28;20174;-75
2021/12/22 11:51:53;;;;;;;24.40;13.40;;;4.30;99.90;;;;;;5076539;28;20177;-75
2021/12/22 11:54:25;;;;;;;25.33;13.73;;;4.10;99.90;;;;;;5076289;28;20180;-75
2021/12/22 11:56:53;;;;;;;25.10;14.53;;;3.90;99.90;;;;;;5076471;28;20586;-75
2021/12/22 11:59:37;;;;;;;23.13;13.70;;;3.70;99.90;;;;;;5094253;28;20190;-75
2021/12/22 12:02:19;;;;;;;24.60;13.47;;;3.60;99.90;;;;;;5094820;28;20222;-75
2021/12/22 12:04:47;;;;;;;23.30;13.73;;;3.50;99.90;;;;;;5076436;28;20169;-76
2021/12/22 12:07:41;;;;;;;39.77;21.63;;;3.50;99.90;;;;;;5075800;28;20203;-75
2021/12/22 12:10:38;;;;;;;30.20;16.00;;;3.60;99.90;;;;;;5093822;28;20173;-76
2021/12/22 12:13:09;;;;;;;25.93;15.13;;;3.70;99.90;;;;;;5094030;28;20169;-75
2021/12/22 12:22:09;;;;;;;28.10;15.33;;;3.70;99.90;;;;;;5094423;28;20198;-75
2021/12/22 12:24:46;;;;;;;30.60;15.00;;;3.40;99.90;;;;;;5076425;28;20203;-75
2021/12/22 12:27:34;;;;;;;28.40;15.77;;;3.40;99.90;;;;;;5075747;28;20183;-75
2021/12/22 12:30:07;;;;;;;29.03;15.53;;;3.20;99.90;;;;;;5075446;28;20200;-75
2021/12/22 12:32:39;;;;;;;30.27;15.97;;;3.30;99.90;;;;;;5075617;28;20179;-75
2021/12/22 12:35:23;;;;;;;28.17;15.77;;;3.20;99.90;;;;;;5075600;28;20197;-76
2021/12/22 12:38:15;;;;;;;25.53;14.60;;;3.30;99.90;;;;;;5075151;28;20254;-76
2021/12/22 12:41:16;;;;;;;26.00;14.77;;;3.30;99.90;;;;;;5075345;28;20165;-77
2021/12/22 12:43:44;;;;;;;23.73;14.77;;;3.20;99.90;;;;;;5092840;28;20173;-75
2021/12/22 12:46:23;;;;;;;28.03;14.77;;;3.20;99.90;;;;;;5074377;28;20177;-75
2021/12/22 12:48:51;;;;;;;24.60;14.70;;;3.00;99.90;;;;;;5093048;28;20670;-76
2021/12/22 12:51:26;;;;;;;25.80;14.57;;;3.00;99.90;;;;;;5075356;28;20174;-75
2021/12/22 12:53:56;;;;;;;25.60;14.27;;;3.00;99.90;;;;;;5075213;28;20174;-76
2021/12/22 12:56:33;;;;;;;27.93;14.43;;;3.10;99.90;;;;;;5075383;28;20215;-76
2021/12/22 12:59:11;;;;;;;25.20;13.50;;;3.20;99.90;;;;;;5078605;28;20200;-76
2021/12/22 13:01:50;;;;;;;25.90;12.77;;;3.20;99.90;;;;;;5093343;28;20171;-77
2021/12/22 13:04:26;;;;;;;26.07;12.27;;;3.10;99.90;;;;;;5074907;28;20632;-76
2021/12/22 13:06:52;;;;;;;23.20;12.50;;;3.10;99.90;;;;;;5093558;28;20174;-75
2021/12/22 13:09:26;;;;;;;22.90;11.73;;;3.20;99.90;;;;;;5074578;28;20192;-74
2021/12/22 13:11:59;;;;;;;21.30;12.63;;;3.10;99.90;;;;;;5074810;28;20173;-75
2021/12/22 13:17:14;;;;;;;20.67;12.27;;;3.10;99.90;;;;;;5092948;28;20240;-74